Poages Mill, Virginia
Current Conditions -  °F | °C
As of 4:54 PM on Monday 24 Nov 2014 (Local Time) from KROA Reporting Station
Clear Clear  
Wind Chill: 66°   Ceiling: Unl
Heat Index: 66°   Visibility: 10mi
Dew Point: 51°   Wind: 9mph
Humidity: 59%   Direction: 180°S
Pressure: 29.74"   Gusts: NA
Location:  37.2112°N, 80.0525°W
Report Text: KROA 242154Z 18008KT 10SM CLR 19/11 A2974 RMK AO2 SLP064 T01890106
Loading
Personal Weather Stations






























Interactive Weather Map New forecast layout! Learn more

10-Day Weather Forecast

Advertisements
Track Severe Weather on mobile